Macclesfield, United Kingdom
Current Conditions -  °F | °C
As of 12:20 PM on Sunday 21 Dec 2014 (Local Time) from EGCC Reporting Station
Broken Clouds Broken Clouds  
Wind Chill: 50°   Ceiling: 2400
Heat Index: 50°   Visibility: 6mi
Dew Point: 45°   Wind: 17mph
Humidity: 82%   Direction: 220°SW
Pressure: 30.09"   Gusts: NA
Location:  53.26°N, 2.13°W
Report Text: EGCC 211220Z 22015KT 9999 FEW019 BKN024 10/07 Q1019
Loading
Personal Weather Stations






























Interactive Weather Map New forecast layout! Learn more

10-Day Weather Forecast

Advertisements
Track Severe Weather on mobile